Time;durP1;ratioP1;P1;durP2;ratioP2;P2;SDS_P1;SDS_P2;PMS_P1;PMS_P2;Temp;Humidity;BMP_temperature;BMP_pressure;BME280_temperature;BME280_humidity;BME280_pressure;Samples;Min_cycle;Max_cycle;Signal;HPM_P1;HPM_P2
2023/04/01 00:01:52;;;;;;;10.77;7.65;;;;;;;;;;6219589;23;21595;-83
2023/04/01 00:04:18;;;;;;;10.70;7.60;;;;;;;;;;6220798;23;20352;-83
2023/04/01 00:06:44;;;;;;;9.63;8.20;;;;;;;;;;6247498;23;20378;-84
2023/04/01 00:09:10;;;;;;;10.88;7.15;;;;;;;;;;6219669;23;20375;-84
2023/04/01 00:11:36;;;;;;;9.85;6.97;;;;;;;;;;6246469;23;20340;-84
2023/04/01 00:14:02;;;;;;;8.82;7.40;;;;;;;;;;6219494;23;20406;-81
2023/04/01 00:16:29;;;;;;;8.85;7.72;;;;;;;;;;6220427;23;20382;-83
2023/04/01 00:18:55;;;;;;;11.98;8.82;;;;;;;;;;6219822;23;20356;-83
2023/04/01 00:21:22;;;;;;;9.95;7.65;;;;;;;;;;6219702;23;20336;-82
2023/04/01 00:23:48;;;;;;;9.23;7.70;;;;;;;;;;6222182;23;20664;-84
2023/04/01 00:26:17;;;;;;;9.43;7.30;;;;;;;;;;6248888;23;20329;-84
2023/04/01 00:28:43;;;;;;;8.50;7.30;;;;;;;;;;6248858;23;20360;-84
2023/04/01 00:31:10;;;;;;;9.25;7.40;;;;;;;;;;6221846;23;20390;-83
2023/04/01 00:33:36;;;;;;;7.97;7.10;;;;;;;;;;6222200;23;20775;-82
2023/04/01 00:36:09;;;;;;;8.00;7.20;;;;;;;;;;6221747;23;20402;-83
2023/04/01 00:38:36;;;;;;;9.00;7.00;;;;;;;;;;6248892;23;20333;-83
2023/04/01 00:41:02;;;;;;;8.80;6.90;;;;;;;;;;6248804;23;20328;-83
2023/04/01 00:43:28;;;;;;;7.45;6.50;;;;;;;;;;6222170;23;20715;-82
2023/04/01 00:48:34;;;;;;;8.02;7.20;;;;;;;;;;6217877;23;20373;-83
2023/04/01 00:51:12;;;;;;;7.38;6.50;;;;;;;;;;6191065;23;20448;-82
2023/04/01 00:53:40;;;;;;;7.45;6.10;;;;;;;;;;6191899;23;20349;-82
2023/04/01 00:56:10;;;;;;;7.95;6.50;;;;;;;;;;6191598;23;20353;-82
2023/04/01 00:58:39;;;;;;;8.68;6.88;;;;;;;;;;6191201;23;20346;-81
2023/04/01 01:01:06;;;;;;;8.65;6.90;;;;;;;;;;6191692;23;20376;-83
2023/04/01 01:03:32;;;;;;;10.27;7.82;;;;;;;;;;6217312;23;20441;-82
2023/04/01 01:06:08;;;;;;;10.65;8.20;;;;;;;;;;6191440;23;20342;-82
2023/04/01 01:08:43;;;;;;;9.35;7.82;;;;;;;;;;6191101;23;20840;-82
2023/04/01 01:11:13;;;;;;;19.67;15.98;;;;;;;;;;6218443;23;20781;-82
2023/04/01 01:14:06;;;;;;;21.17;15.27;;;;;;;;;;6218117;23;20392;-82
2023/04/01 01:16:35;;;;;;;10.88;8.70;;;;;;;;;;6186445;23;20334;-83
2023/04/01 01:19:07;;;;;;;8.63;7.78;;;;;;;;;;6220157;23;20376;-82
2023/04/01 01:21:47;;;;;;;8.88;7.55;;;;;;;;;;6219896;23;20342;-82
2023/04/01 01:24:19;;;;;;;7.10;6.40;;;;;;;;;;6219824;23;20356;-83
2023/04/01 01:26:49;;;;;;;9.43;7.53;;;;;;;;;;6220145;23;20804;-82
2023/04/01 01:29:34;;;;;;;10.57;8.70;;;;;;;;;;6220072;23;20819;-82
2023/04/01 01:32:19;;;;;;;10.02;8.48;;;;;;;;;;6193151;23;20353;-82
2023/04/01 01:34:45;;;;;;;9.27;7.85;;;;;;;;;;6194640;23;20392;-83
2023/04/01 01:37:16;;;;;;;9.70;8.25;;;;;;;;;;6200056;23;20809;-82
2023/04/01 01:39:43;;;;;;;13.68;9.98;;;;;;;;;;6235064;23;20334;-80
2023/04/01 01:42:11;;;;;;;12.13;10.00;;;;;;;;;;6209435;23;20346;-82
2023/04/01 01:44:38;;;;;;;15.43;10.87;;;;;;;;;;6220538;23;20338;-82
2023/04/01 01:47:05;;;;;;;11.50;8.70;;;;;;;;;;6220352;23;20366;-83
2023/04/01 01:49:32;;;;;;;13.25;10.05;;;;;;;;;;6192727;23;20412;-83
2023/04/01 01:51:58;;;;;;;9.27;7.88;;;;;;;;;;6219148;23;20344;-83
2023/04/01 01:54:24;;;;;;;9.13;7.80;;;;;;;;;;6192539;23;20350;-83
2023/04/01 01:56:54;;;;;;;8.27;7.40;;;;;;;;;;6218644;23;20330;-83
2023/04/01 01:59:21;;;;;;;10.00;7.70;;;;;;;;;;6192738;23;20424;-82
2023/04/01 02:01:51;;;;;;;8.63;7.70;;;;;;;;;;6218771;23;20823;-83
2023/04/01 02:04:18;;;;;;;7.90;7.10;;;;;;;;;;6192942;23;20353;-83
2023/04/01 02:06:52;;;;;;;8.63;7.50;;;;;;;;;;6193161;23;20361;-82
2023/04/01 02:09:18;;;;;;;12.52;8.18;;;;;;;;;;6192945;23;20416;-83
2023/04/01 02:11:50;;;;;;;9.15;6.20;;;;;;;;;;6191437;23;20380;-82
2023/04/01 02:14:24;;;;;;;7.53;5.68;;;;;;;;;;6192268;23;20342;-82
2023/04/01 02:17:11;;;;;;;6.90;4.90;;;;;;;;;;6193002;23;20425;-81
2023/04/01 02:19:40;;;;;;;8.13;5.65;;;;;;;;;;6191302;23;20820;-82
2023/04/01 02:22:09;;;;;;;11.18;7.57;;;;;;;;;;6191263;23;20349;-82
2023/04/01 02:24:36;;;;;;;9.70;7.65;;;;;;;;;;6219620;23;20339;-82
2023/04/01 02:27:04;;;;;;;10.77;9.00;;;;;;;;;;6219057;23;20436;-83
2023/04/01 02:29:31;;;;;;;11.02;8.88;;;;;;;;;;6192536;23;20809;-83
2023/04/01 02:31:57;;;;;;;10.48;8.80;;;;;;;;;;6191456;23;20369;-82
2023/04/01 02:34:24;;;;;;;11.27;8.77;;;;;;;;;;6192338;23;20658;-82
2023/04/01 02:36:51;;;;;;;9.80;8.10;;;;;;;;;;6192022;23;20346;-81
2023/04/01 02:39:17;;;;;;;8.65;7.75;;;;;;;;;;6191157;23;20338;-81
2023/04/01 02:41:44;;;;;;;12.55;9.52;;;;;;;;;;6190727;23;20342;-82
2023/04/01 02:44:11;;;;;;;14.37;10.70;;;;;;;;;;6191417;23;20346;-82
2023/04/01 02:46:37;;;;;;;14.35;10.25;;;;;;;;;;6218200;23;20416;-81
2023/04/01 02:49:04;;;;;;;12.25;10.93;;;;;;;;;;6218469;23;20421;-83
2023/04/01 02:51:30;;;;;;;12.52;10.38;;;;;;;;;;6217366;23;20870;-82
2023/04/01 02:53:56;;;;;;;11.25;10.15;;;;;;;;;;6192536;23;20342;-82
2023/04/01 02:56:22;;;;;;;12.23;10.95;;;;;;;;;;6205985;23;20338;-82
2023/04/01 02:58:48;;;;;;;11.27;9.05;;;;;;;;;;6208058;23;20355;-80
2023/04/01 03:01:14;;;;;;;9.77;8.10;;;;;;;;;;6206852;23;20346;-79
2023/04/01 03:03:40;;;;;;;9.63;8.10;;;;;;;;;;6208551;23;20373;-80
2023/04/01 03:06:07;;;;;;;9.00;8.07;;;;;;;;;;6195383;23;20406;-82
2023/04/01 03:08:33;;;;;;;11.32;8.57;;;;;;;;;;6192263;23;20371;-82
2023/04/01 03:10:59;;;;;;;9.10;8.10;;;;;;;;;;6188763;23;20338;-83
2023/04/01 03:13:25;;;;;;;9.00;7.43;;;;;;;;;;6192390;23;20474;-83
2023/04/01 03:15:54;;;;;;;10.73;8.87;;;;;;;;;;6219279;23;20342;-83
2023/04/01 03:18:22;;;;;;;10.75;9.50;;;;;;;;;;6219285;23;20649;-82
2023/04/01 03:20:48;;;;;;;11.48;9.95;;;;;;;;;;6191879;23;20381;-83
2023/04/01 03:23:17;;;;;;;8.37;7.50;;;;;;;;;;6192470;23;20816;-82
2023/04/01 03:25:43;;;;;;;8.73;7.72;;;;;;;;;;6219284;23;20334;-83
2023/04/01 03:28:09;;;;;;;9.38;8.38;;;;;;;;;;6192008;23;20358;-83
2023/04/01 03:30:36;;;;;;;11.70;9.68;;;;;;;;;;6192242;23;20373;-82
2023/04/01 03:33:02;;;;;;;12.50;9.90;;;;;;;;;;6191962;23;20373;-82
2023/04/01 03:35:28;;;;;;;12.00;10.32;;;;;;;;;;6192507;23;20385;-82
2023/04/01 03:37:55;;;;;;;9.30;8.30;;;;;;;;;;6192352;23;20342;-82
2023/04/01 03:40:22;;;;;;;12.60;8.60;;;;;;;;;;6192342;23;20348;-82
2023/04/01 03:42:48;;;;;;;10.30;8.43;;;;;;;;;;6191014;23;20400;-82
2023/04/01 03:45:14;;;;;;;12.73;9.38;;;;;;;;;;6192441;23;20395;-83
2023/04/01 03:47:43;;;;;;;11.85;9.23;;;;;;;;;;6206529;23;20381;-81
2023/04/01 03:50:09;;;;;;;10.63;8.30;;;;;;;;;;6218876;23;20416;-83
2023/04/01 03:52:38;;;;;;;8.85;7.82;;;;;;;;;;6215163;23;20337;-82
2023/04/01 03:55:04;;;;;;;10.05;8.10;;;;;;;;;;6216003;23;20517;-83
2023/04/01 03:57:33;;;;;;;7.97;6.30;;;;;;;;;;6217811;23;20793;-83
2023/04/01 03:59:59;;;;;;;10.75;6.90;;;;;;;;;;6217801;23;20696;-82
2023/04/01 04:02:25;;;;;;;9.90;6.50;;;;;;;;;;6216672;23;20353;-83
2023/04/01 04:04:51;;;;;;;8.23;6.32;;;;;;;;;;6216568;23;20346;-82
2023/04/01 04:07:17;;;;;;;8.38;5.70;;;;;;;;;;6216480;23;20361;-83
2023/04/01 04:09:44;;;;;;;8.77;5.10;;;;;;;;;;6216346;23;20350;-83
2023/04/01 04:12:10;;;;;;;10.13;5.07;;;;;;;;;;6216194;23;20334;-83
2023/04/01 04:14:36;;;;;;;7.60;4.70;;;;;;;;;;6216779;23;20366;-83
2023/04/01 04:17:02;;;;;;;7.67;4.90;;;;;;;;;;6217976;23;20406;-83
2023/04/01 04:19:33;;;;;;;7.23;4.40;;;;;;;;;;6216923;23;20350;-83
2023/04/01 04:22:01;;;;;;;8.95;4.57;;;;;;;;;;6215439;23;20338;-84
2023/04/01 04:24:27;;;;;;;9.30;4.40;;;;;;;;;;6216240;23;20653;-83
2023/04/01 04:26:53;;;;;;;6.00;4.30;;;;;;;;;;6216198;23;20424;-83
2023/04/01 04:29:19;;;;;;;9.27;4.80;;;;;;;;;;6215581;23;20685;-83
2023/04/01 04:31:45;;;;;;;7.67;4.80;;;;;;;;;;6215598;23;20345;-83
2023/04/01 04:34:12;;;;;;;8.93;4.78;;;;;;;;;;6218848;23;20338;-83
2023/04/01 04:36:38;;;;;;;7.07;4.90;;;;;;;;;;6217300;23;20338;-82
2023/04/01 04:39:04;;;;;;;8.15;5.40;;;;;;;;;;6219353;23;20331;-83
2023/04/01 04:41:30;;;;;;;9.98;7.40;;;;;;;;;;6218835;23;20335;-83
2023/04/01 04:43:58;;;;;;;11.95;8.13;;;;;;;;;;6220661;23;20329;-83
2023/04/01 04:46:24;;;;;;;10.38;7.57;;;;;;;;;;6216431;23;20350;-82
2023/04/01 04:48:50;;;;;;;13.48;10.05;;;;;;;;;;6217898;23;20374;-83
2023/04/01 04:51:18;;;;;;;10.07;8.05;;;;;;;;;;6190897;23;20345;-83
2023/04/01 04:53:45;;;;;;;9.80;7.23;;;;;;;;;;6190760;23;20412;-83
2023/04/01 04:56:14;;;;;;;8.52;7.28;;;;;;;;;;6217922;23;20421;-83
2023/04/01 04:58:40;;;;;;;10.75;7.53;;;;;;;;;;6192189;23;20346;-83
2023/04/01 05:01:09;;;;;;;8.57;7.10;;;;;;;;;;6190466;23;20346;-82
2023/04/01 05:03:35;;;;;;;14.60;8.30;;;;;;;;;;6190883;23;20330;-82
2023/04/01 05:06:01;;;;;;;14.75;9.00;;;;;;;;;;6190561;23;20345;-83
2023/04/01 05:08:27;;;;;;;13.43;8.82;;;;;;;;;;6193170;23;20365;-83
2023/04/01 05:10:53;;;;;;;12.25;8.70;;;;;;;;;;6193760;23;20378;-83
2023/04/01 05:13:20;;;;;;;9.40;7.10;;;;;;;;;;6193453;23;20805;-83
2023/04/01 05:15:46;;;;;;;8.30;6.70;;;;;;;;;;6193958;23;20350;-83
2023/04/01 05:18:12;;;;;;;12.88;8.35;;;;;;;;;;6194574;23;20370;-84
2023/04/01 05:20:38;;;;;;;18.08;9.73;;;;;;;;;;6194771;23;20400;-84
2023/04/01 05:23:04;;;;;;;17.67;9.77;;;;;;;;;;6219014;23;20334;-83
2023/04/01 05:25:30;;;;;;;10.65;8.57;;;;;;;;;;6192914;23;20342;-83
2023/04/01 05:27:56;;;;;;;15.88;9.05;;;;;;;;;;6219549;23;20366;-83
2023/04/01 05:30:31;;;;;;;10.57;8.02;;;;;;;;;;6192812;23;20368;-84
2023/04/01 05:33:07;;;;;;;11.75;8.50;;;;;;;;;;6219817;23;20816;-83
2023/04/01 05:35:38;;;;;;;8.88;6.75;;;;;;;;;;6194214;23;20342;-84
2023/04/01 05:38:04;;;;;;;11.93;7.55;;;;;;;;;;6193221;23;20338;-83
2023/04/01 05:40:31;;;;;;;11.63;8.05;;;;;;;;;;6192648;23;20342;-83
2023/04/01 05:42:57;;;;;;;9.65;7.10;;;;;;;;;;6192819;23;20806;-83
2023/04/01 05:45:23;;;;;;;9.13;6.85;;;;;;;;;;6192049;23;20350;-82
2023/04/01 05:47:49;;;;;;;11.40;7.00;;;;;;;;;;6210888;23;20413;-83
2023/04/01 05:50:16;;;;;;;13.82;7.85;;;;;;;;;;6222050;23;20342;-83
2023/04/01 05:52:42;;;;;;;9.27;7.13;;;;;;;;;;6219358;23;20342;-83
2023/04/01 05:55:08;;;;;;;9.63;6.85;;;;;;;;;;6220867;23;20365;-82
2023/04/01 05:57:35;;;;;;;12.55;8.30;;;;;;;;;;6220737;23;20334;-82
2023/04/01 06:00:01;;;;;;;12.65;7.53;;;;;;;;;;6221442;23;20338;-83
2023/04/01 06:02:27;;;;;;;10.88;8.20;;;;;;;;;;6220152;23;20378;-83
2023/04/01 06:04:59;;;;;;;12.35;7.30;;;;;;;;;;6219488;23;20338;-83
2023/04/01 06:07:25;;;;;;;9.90;6.95;;;;;;;;;;6221410;23;20381;-82
2023/04/01 06:09:51;;;;;;;10.75;7.55;;;;;;;;;;6220914;23;20352;-81
2023/04/01 06:12:39;;;;;;;8.85;6.38;;;;;;;;;;6221683;23;20362;-83
2023/04/01 06:15:31;;;;;;;9.10;6.95;;;;;;;;;;6222098;23;20341;-83
2023/04/01 06:17:57;;;;;;;8.98;7.30;;;;;;;;;;6222939;23;20337;-83
2023/04/01 06:20:40;;;;;;;10.98;7.38;;;;;;;;;;6221426;23;20359;-82
2023/04/01 06:23:06;;;;;;;10.57;7.28;;;;;;;;;;6222329;23;20330;-83
2023/04/01 06:25:51;;;;;;;9.38;6.53;;;;;;;;;;6220581;23;20342;-82
2023/04/01 06:28:17;;;;;;;8.88;7.38;;;;;;;;;;6223154;23;20354;-83
2023/04/01 06:30:45;;;;;;;10.13;6.55;;;;;;;;;;6220584;23;20357;-82
2023/04/01 06:33:30;;;;;;;12.73;6.75;;;;;;;;;;6220477;23;20377;-82
2023/04/01 06:36:14;;;;;;;10.35;6.95;;;;;;;;;;6221652;23;20362;-83
2023/04/01 06:38:40;;;;;;;13.23;8.05;;;;;;;;;;6235879;23;20350;-81
2023/04/01 06:41:12;;;;;;;47.67;34.05;;;;;;;;;;6233428;23;20349;-81
2023/04/01 06:44:05;;;;;;;42.13;29.13;;;;;;;;;;6225844;23;20342;-84
2023/04/01 06:46:37;;;;;;;15.00;9.85;;;;;;;;;;6219775;23;20346;-83
2023/04/01 06:49:22;;;;;;;10.98;7.60;;;;;;;;;;6220096;23;20370;-83
2023/04/01 06:52:06;;;;;;;12.18;7.40;;;;;;;;;;6219116;23;20365;-83
2023/04/01 06:54:34;;;;;;;10.68;6.25;;;;;;;;;;6221862;23;20334;-83
2023/04/01 06:57:02;;;;;;;13.75;7.65;;;;;;;;;;6221429;23;20818;-84
2023/04/01 06:59:30;;;;;;;10.60;6.82;;;;;;;;;;6222528;23;20425;-83
2023/04/01 07:01:59;;;;;;;9.23;5.53;;;;;;;;;;6222989;23;20344;-84
2023/04/01 07:04:32;;;;;;;8.40;5.10;;;;;;;;;;6224451;23;20350;-79
2023/04/01 07:07:06;;;;;;;22.83;14.57;;;;;;;;;;6217621;23;20424;-77
2023/04/01 07:09:35;;;;;;;15.10;9.73;;;;;;;;;;6222381;23;20346;-83
2023/04/01 07:12:02;;;;;;;30.88;21.67;;;;;;;;;;6220215;23;20453;-84
2023/04/01 07:14:31;;;;;;;9.40;4.90;;;;;;;;;;6223282;23;20789;-82
2023/04/01 07:17:00;;;;;;;9.15;4.88;;;;;;;;;;6221277;23;20350;-81
2023/04/01 07:19:29;;;;;;;8.82;5.10;;;;;;;;;;6222351;23;20366;-83
2023/04/01 07:21:58;;;;;;;6.90;4.32;;;;;;;;;;6221767;23;20342;-83
2023/04/01 07:24:26;;;;;;;11.90;7.73;;;;;;;;;;6220680;23;20417;-84
2023/04/01 07:26:56;;;;;;;9.10;5.72;;;;;;;;;;6225947;23;20334;-84
2023/04/01 07:29:22;;;;;;;7.38;5.30;;;;;;;;;;6222372;23;20377;-83
2023/04/01 07:31:58;;;;;;;12.48;7.32;;;;;;;;;;6224589;23;20410;-83
2023/04/01 07:34:26;;;;;;;15.38;10.73;;;;;;;;;;6221810;23;20342;-83
2023/04/01 07:37:13;;;;;;;9.38;6.50;;;;;;;;;;6224321;23;20376;-84
2023/04/01 07:39:42;;;;;;;9.73;5.68;;;;;;;;;;6223486;23;21054;-85
2023/04/01 07:42:24;;;;;;;7.37;5.07;;;;;;;;;;6221663;23;20353;-82
2023/04/01 07:45:05;;;;;;;9.05;5.32;;;;;;;;;;6225729;23;20339;-83
2023/04/01 07:47:47;;;;;;;8.90;5.20;;;;;;;;;;6224855;23;20370;-83
2023/04/01 07:50:29;;;;;;;7.50;5.60;;;;;;;;;;6225256;23;20373;-86
2023/04/01 07:53:21;;;;;;;9.50;5.25;;;;;;;;;;6225569;23;20393;-84
2023/04/01 07:55:53;;;;;;;9.88;5.30;;;;;;;;;;6231870;23;20473;-85
2023/04/01 07:58:30;;;;;;;7.45;4.70;;;;;;;;;;6233042;23;20337;-82
2023/04/01 08:01:07;;;;;;;7.82;5.60;;;;;;;;;;6227810;23;20350;-84
2023/04/01 08:03:54;;;;;;;7.75;5.15;;;;;;;;;;6214797;23;20413;-83
2023/04/01 08:06:36;;;;;;;7.15;4.53;;;;;;;;;;6215909;23;20384;-83
2023/04/01 08:09:21;;;;;;;7.97;4.80;;;;;;;;;;6213947;23;20366;-83
2023/04/01 08:11:54;;;;;;;7.38;4.70;;;;;;;;;;6212391;23;20350;-83
2023/04/01 08:14:35;;;;;;;2.85;2.50;;;;;;;;;;6211711;23;20381;-83
2023/04/01 08:17:04;;;;;;;3.55;2.85;;;;;;;;;;6213807;23;20951;-83
2023/04/01 08:19:51;;;;;;;3.50;3.08;;;;;;;;;;6212896;23;20357;-83
2023/04/01 08:22:22;;;;;;;3.42;3.13;;;;;;;;;;6214124;23;20424;-84
2023/04/01 08:24:50;;;;;;;3.78;3.38;;;;;;;;;;6218040;23;20354;-84
2023/04/01 08:27:24;;;;;;;3.50;3.20;;;;;;;;;;6223263;23;21057;-83
2023/04/01 08:29:59;;;;;;;3.83;3.50;;;;;;;;;;6216001;23;20358;-84
2023/04/01 08:32:29;;;;;;;4.00;3.60;;;;;;;;;;6218268;23;20350;-84
2023/04/01 08:34:59;;;;;;;4.40;3.97;;;;;;;;;;6225822;23;20422;-84
2023/04/01 08:37:29;;;;;;;4.55;4.13;;;;;;;;;;6221632;23;20848;-84
2023/04/01 08:39:57;;;;;;;4.82;4.32;;;;;;;;;;6223145;23;20342;-84
2023/04/01 08:42:47;;;;;;;5.20;4.53;;;;;;;;;;6222958;23;20360;-84
2023/04/01 08:45:23;;;;;;;5.03;4.43;;;9.50;99.90;;;;;;6200137;23;20334;-85
2023/04/01 08:48:16;;;;;;;5.13;4.63;;;9.70;99.90;;;;;;6218133;23;20385;-85
2023/04/01 08:51:20;;;;;;;6.22;5.03;;;9.50;99.90;;;;;;6194523;23;20401;-85
2023/04/01 08:53:59;;;;;;;5.18;4.50;;;9.40;99.90;;;;;;6192351;23;20566;-85
2023/04/01 08:56:52;;;;;;;5.72;5.07;;;9.50;99.90;;;;;;6219132;23;20342;-85
2023/04/01 08:59:32;;;;;;;5.38;4.88;;;9.50;99.90;;;;;;6192579;23;20354;-85
2023/04/01 09:02:13;;;;;;;6.70;5.47;;;9.30;99.90;;;;;;6222571;23;20436;-85
2023/04/01 09:04:57;;;;;;;8.15;6.10;;;9.20;99.90;;;;;;6220983;23;20349;-85
2023/04/01 09:07:41;;;;;;;6.70;5.90;;;9.10;99.90;;;;;;6191373;23;20821;-85
2023/04/01 09:10:26;;;;;;;6.80;6.10;;;9.20;99.90;;;;;;6216845;23;20412;-85
2023/04/01 09:13:31;;;;;;;7.87;6.70;;;9.10;99.90;;;;;;6216527;23;20342;-84
2023/04/01 09:16:23;;;;;;;8.10;7.22;;;8.90;99.90;;;;;;6167259;23;20346;-85
2023/04/01 09:18:57;;;;;;;8.25;7.05;;;9.00;99.90;;;;;;6216791;23;20994;-85
2023/04/01 09:22:00;;;;;;;7.65;6.70;;;9.00;99.90;;;;;;6206046;23;20360;-84
2023/04/01 09:24:44;;;;;;;7.32;6.47;;;9.00;99.90;;;;;;6237610;23;20350;-82
2023/04/01 09:27:44;;;;;;;7.40;6.70;;;8.90;99.90;;;;;;6236820;23;20396;-83
2023/04/01 09:30:34;;;;;;;9.50;8.15;;;9.00;99.90;;;;;;6234709;23;20405;-84
2023/04/01 09:33:45;;;;;;;8.70;7.80;;;9.10;99.90;;;;;;6195082;23;20354;-85
2023/04/01 09:36:16;;;;;;;9.43;8.20;;;9.00;99.90;;;;;;6162676;23;20350;-84
2023/04/01 09:38:56;;;;;;;10.52;9.52;;;8.90;99.90;;;;;;6224526;23;20361;-83
2023/04/01 09:41:31;;;;;;;10.73;9.52;;;8.80;99.90;;;;;;6193117;23;20358;-83
2023/04/01 09:43:59;;;;;;;11.35;10.25;;;8.80;99.90;;;;;;6215313;23;20350;-84
2023/04/01 09:46:31;;;;;;;11.40;10.30;;;8.90;99.90;;;;;;6213325;23;20411;-83
2023/04/01 09:49:33;;;;;;;10.45;9.50;;;9.00;99.90;;;;;;6214457;23;20366;-83
2023/04/01 09:52:18;;;;;;;11.32;10.30;;;8.90;99.90;;;;;;6192617;23;20731;-85
2023/04/01 09:54:46;;;;;;;12.00;10.80;;;9.00;99.90;;;;;;6215762;23;20429;-86
2023/04/01 09:57:49;;;;;;;11.68;10.57;;;8.90;99.90;;;;;;6214595;23;20341;-85
2023/04/01 10:00:40;;;;;;;13.02;11.52;;;9.00;99.90;;;;;;6192768;23;20350;-84
2023/04/01 10:03:43;;;;;;;12.70;11.50;;;8.80;99.90;;;;;;6200704;23;20378;-85
2023/04/01 10:06:29;;;;;;;13.10;11.85;;;8.70;99.90;;;;;;6201035;23;20349;-84
2023/04/01 10:09:16;;;;;;;12.63;11.43;;;8.60;99.90;;;;;;6199850;23;20438;-84
2023/04/01 10:12:00;;;;;;;11.05;9.95;;;8.70;99.90;;;;;;6197698;23;20436;-83
2023/04/01 10:14:58;;;;;;;10.98;9.98;;;8.80;99.90;;;;;;6199596;23;20350;-85
2023/04/01 10:17:23;;;;;;;10.50;9.50;;;8.80;99.90;;;;;;6197529;23;20353;-85
2023/04/01 10:20:13;;;;;;;10.40;9.40;;;8.90;99.90;;;;;;6197472;23;20354;-85
2023/04/01 10:22:58;;;;;;;10.23;9.23;;;8.90;99.90;;;;;;6196702;23;20354;-84
2023/04/01 10:25:34;;;;;;;10.13;9.23;;;8.90;99.90;;;;;;6201246;23;20350;-84
2023/04/01 10:28:21;;;;;;;10.30;9.40;;;8.80;99.90;;;;;;6227961;23;20370;-87
2023/04/01 10:31:20;;;;;;;11.65;10.60;;;8.90;99.90;;;;;;6204522;23;20359;-87
2023/04/01 10:34:07;;;;;;;11.07;10.07;;;8.80;99.90;;;;;;6200480;23;20353;-85
2023/04/01 10:36:56;;;;;;;10.27;9.30;;;8.80;99.90;;;;;;6220577;23;20794;-85
2023/04/01 10:39:57;;;;;;;10.98;9.98;;;8.70;99.90;;;;;;6220954;23;20397;-87
2023/04/01 10:42:37;;;;;;;10.65;9.65;;;8.80;99.90;;;;;;6218581;23;20350;-86
2023/04/01 10:45:40;;;;;;;9.55;8.75;;;8.90;99.90;;;;;;6216367;23;20350;-86
2023/04/01 10:48:39;;;;;;;8.75;7.95;;;8.90;99.90;;;;;;6208288;23;20374;-85
2023/04/01 10:51:12;;;;;;;8.60;7.90;;;8.80;99.90;;;;;;6216905;23;20344;-86
2023/04/01 10:54:06;;;;;;;8.73;7.93;;;8.90;99.90;;;;;;6215094;23;20350;-86
2023/04/01 10:56:54;;;;;;;9.20;8.50;;;9.00;99.90;;;;;;6217065;23;20350;-85
2023/04/01 10:59:45;;;;;;;9.38;8.57;;;8.60;99.90;;;;;;6216611;23;20342;-86
2023/04/01 11:02:16;;;;;;;9.45;8.65;;;8.50;99.90;;;;;;6215737;23;20633;-85
2023/04/01 11:05:27;;;;;;;8.00;7.40;;;8.50;99.90;;;;;;6217801;23;20388;-85
2023/04/01 11:08:33;;;;;;;7.88;7.28;;;8.40;99.90;;;;;;6216587;23;20369;-84
2023/04/01 11:11:23;;;;;;;6.65;6.15;;;8.60;99.90;;;;;;6216440;23;20350;-85
2023/04/01 11:14:40;;;;;;;7.60;7.00;;;8.40;99.90;;;;;;6216899;23;20389;-85
2023/04/01 11:17:30;;;;;;;6.20;5.70;;;8.60;99.90;;;;;;6134007;23;20460;-85
2023/04/01 11:20:41;;;;;;;7.03;6.53;;;8.80;99.90;;;;;;6216323;23;20350;-85
2023/04/01 11:23:37;;;;;;;7.10;6.57;;;8.40;99.90;;;;;;6215641;23;20346;-86
2023/04/01 11:26:26;;;;;;;7.00;6.40;;;8.50;99.90;;;;;;6215212;23;20429;-85
2023/04/01 11:29:16;;;;;;;6.80;6.30;;;8.70;99.90;;;;;;6217048;23;20380;-85
2023/04/01 11:32:05;;;;;;;6.13;5.63;;;8.90;99.90;;;;;;6213378;23;20354;-85
2023/04/01 11:35:15;;;;;;;6.20;5.70;;;8.70;99.90;;;;;;6218473;23;20821;-86
2023/04/01 11:37:56;;;;;;;6.20;5.70;;;8.40;99.90;;;;;;6219178;23;20353;-85
2023/04/01 11:40:47;;;;;;;5.95;5.50;;;8.50;99.90;;;;;;6218043;23;20442;-85
2023/04/01 11:43:20;;;;;;;6.55;6.05;;;8.50;99.90;;;;;;6229204;23;20655;-86
2023/04/01 11:45:49;;;;;;;5.45;5.05;;;8.50;99.90;;;;;;6234607;23;20329;-85
2023/04/01 11:48:46;;;;;;;6.18;5.70;;;8.40;99.90;;;;;;6222796;23;20374;-86
2023/04/01 11:51:12;;;;;;;6.53;6.03;;;8.50;99.90;;;;;;6216560;23;20338;-86
2023/04/01 11:54:12;;;;;;;6.38;5.88;;;8.30;99.90;;;;;;6188649;23;20361;-85
2023/04/01 11:57:22;;;;;;;6.28;5.82;;;8.40;99.90;;;;;;6188532;23;20354;-84
2023/04/01 12:00:02;;;;;;;7.27;6.67;;;8.30;99.90;;;;;;6182513;23;20358;-85
2023/04/01 12:03:12;;;;;;;7.60;7.00;;;8.20;99.90;;;;;;6187045;23;20346;-86
2023/04/01 12:06:00;;;;;;;7.53;6.93;;;8.40;99.90;;;;;;6170819;23;20404;-86
2023/04/01 12:08:54;;;;;;;7.10;6.50;;;8.30;99.90;;;;;;6118396;23;20376;-86
2023/04/01 12:11:41;;;;;;;7.25;6.65;;;8.40;99.90;;;;;;6213970;23;20342;-85
2023/04/01 12:14:28;;;;;;;7.47;6.88;;;8.30;99.90;;;;;;6186972;23;20346;-87
2023/04/01 12:17:45;;;;;;;7.13;6.53;;;8.40;99.90;;;;;;6220103;23;20349;-86
2023/04/01 12:20:43;;;;;;;6.47;5.97;;;8.60;99.90;;;;;;6217555;23;20461;-86
2023/04/01 12:23:21;;;;;;;7.43;6.00;;;8.40;99.90;;;;;;6192917;23;20812;-86
2023/04/01 12:26:20;;;;;;;7.00;6.30;;;8.20;99.90;;;;;;6223443;23;20342;-86
2023/04/01 12:29:06;;;;;;;7.18;6.57;;;8.40;99.90;;;;;;6193833;23;20474;-86
2023/04/01 12:31:52;;;;;;;7.18;6.57;;;8.30;99.90;;;;;;6219740;23;20349;-86
2023/04/01 12:34:41;;;;;;;6.88;6.28;;;8.30;99.90;;;;;;6220521;23;20341;-86
2023/04/01 12:37:29;;;;;;;6.93;6.32;;;8.20;99.90;;;;;;6219652;23;20396;-87
2023/04/01 12:40:20;;;;;;;7.65;7.05;;;8.20;99.90;;;;;;6191831;23;20354;-86
2023/04/01 12:43:11;;;;;;;7.00;6.40;;;8.20;99.90;;;;;;6219594;23;20469;-86
2023/04/01 12:46:18;;;;;;;6.63;6.03;;;8.00;99.90;;;;;;6192762;23;20362;-85
2023/04/01 12:49:09;;;;;;;6.15;5.65;;;8.00;99.90;;;;;;6100070;23;20836;-86
2023/04/01 12:51:46;;;;;;;6.40;5.80;;;8.10;99.90;;;;;;6193160;23;20365;-86
2023/04/01 12:54:48;;;;;;;6.80;6.20;;;8.10;99.90;;;;;;6219002;23;20345;-86
2023/04/01 12:57:29;;;;;;;5.95;5.45;;;8.10;99.90;;;;;;6218005;23;20338;-86
2023/04/01 13:00:32;;;;;;;5.80;5.30;;;8.20;99.90;;;;;;6191383;23;20356;-86
2023/04/01 13:03:23;;;;;;;6.70;6.10;;;8.30;99.90;;;;;;6191319;23;20437;-86
2023/04/01 13:06:51;;;;;;;6.68;6.05;;;8.30;99.90;;;;;;6218486;23;20381;-87
2023/04/01 13:09:42;;;;;;;4.72;4.32;;;8.30;99.90;;;;;;6102228;23;20426;-84
2023/04/01 13:12:21;;;;;;;5.15;4.68;;;8.00;99.90;;;;;;6102771;23;20413;-86
2023/04/01 13:14:57;;;;;;;4.97;4.47;;;8.00;99.90;;;;;;6168784;23;20357;-86
2023/04/01 13:17:44;;;;;;;5.63;4.97;;;8.10;99.90;;;;;;6193208;23;20384;-86
2023/04/01 13:20:09;;;;;;;5.57;5.07;;;7.90;99.90;;;;;;6192803;23;20655;-86
2023/04/01 13:22:56;;;;;;;5.30;4.80;;;7.80;99.90;;;;;;6194188;23;20413;-85
2023/04/01 13:26:03;;;;;;;5.32;4.82;;;8.00;99.90;;;;;;6192333;23;20665;-86
2023/04/01 13:28:56;;;;;;;5.00;4.60;;;7.90;99.90;;;;;;6201955;23;20358;-86
2023/04/01 13:32:00;;;;;;;4.90;4.45;;;7.90;99.90;;;;;;6208413;23;20408;-87
2023/04/01 13:34:38;;;;;;;5.73;4.30;;;7.90;99.90;;;;;;6210449;23;20425;-84
2023/04/01 13:37:31;;;;;;;5.38;4.15;;;7.80;99.90;;;;;;6211484;23;20468;-87
2023/04/01 13:40:35;;;;;;;4.93;4.45;;;7.80;99.90;;;;;;6156397;23;20352;-85
2023/04/01 13:43:56;;;;;;;5.70;5.10;;;7.80;99.90;;;;;;6239492;23;20334;-87
2023/04/01 13:46:33;;;;;;;5.90;5.40;;;7.80;99.90;;;;;;6212493;23;20342;-87
2023/04/01 13:49:30;;;;;;;7.10;5.93;;;7.70;99.90;;;;;;6213921;23;20341;-86
2023/04/01 13:52:25;;;;;;;7.30;6.70;;;7.70;99.90;;;;;;6238011;23;20338;-85
2023/04/01 13:55:31;;;;;;;7.25;6.55;;;7.70;99.90;;;;;;6214140;23;20358;-87
2023/04/01 13:58:47;;;;;;;8.13;7.32;;;7.70;99.90;;;;;;6231645;23;20334;-87
2023/04/01 14:01:40;;;;;;;8.23;7.43;;;7.70;99.90;;;;;;6211450;23;20369;-88
2023/04/01 14:04:50;;;;;;;7.95;7.25;;;7.70;99.90;;;;;;6238206;23;20376;-86
2023/04/01 14:07:40;;;;;;;7.80;7.10;;;7.70;99.90;;;;;;6211667;23;20449;-86
2023/04/01 14:10:12;;;;;;;7.72;7.03;;;7.70;99.90;;;;;;6203571;23;20365;-86
2023/04/01 14:13:02;;;;;;;8.30;7.57;;;7.70;99.90;;;;;;6236076;23;20374;-87
2023/04/01 14:16:15;;;;;;;7.78;7.07;;;7.50;99.90;;;;;;6215609;23;20364;-85
2023/04/01 14:19:42;;;;;;;8.50;7.80;;;7.60;99.90;;;;;;6222462;23;20353;-86
2023/04/01 14:22:30;;;;;;;7.70;7.07;;;7.60;99.90;;;;;;6200067;23;20370;-84
2023/04/01 14:25:02;;;;;;;7.85;7.05;;;7.50;99.90;;;;;;6208318;23;20342;-86
2023/04/01 14:27:44;;;;;;;8.80;8.00;;;7.40;99.90;;;;;;6205618;23;20358;-88
2023/04/01 14:30:34;;;;;;;8.07;7.35;;;7.50;99.90;;;;;;6207695;23;20350;-86
2023/04/01 14:33:24;;;;;;;8.18;7.47;;;7.40;99.90;;;;;;6234377;23;20346;-87
2023/04/01 14:36:15;;;;;;;8.57;7.78;;;7.50;99.90;;;;;;6237749;23;20403;-87
2023/04/01 14:39:08;;;;;;;8.02;7.32;;;7.40;99.90;;;;;;6209310;23;20418;-86
2023/04/01 14:41:47;;;;;;;8.18;7.47;;;7.60;99.90;;;;;;6208429;23;20350;-83
2023/04/01 14:45:04;;;;;;;7.85;7.13;;;7.40;99.90;;;;;;6208794;23;20341;-86
2023/04/01 14:47:46;;;;;;;7.93;7.22;;;7.40;99.90;;;;;;6227236;23;20409;-85
2023/04/01 14:50:26;;;;;;;8.43;7.63;;;7.40;99.90;;;;;;6190480;23;20721;-86
2023/04/01 14:53:07;;;;;;;8.95;8.05;;;7.30;99.90;;;;;;6191648;23;20338;-85
2023/04/01 14:55:42;;;;;;;7.77;7.07;;;7.30;99.90;;;;;;6191593;23;20446;-86
2023/04/01 14:58:12;;;;;;;8.57;7.88;;;7.10;99.90;;;;;;6220937;23;20702;-87